createdAt,value
2022-11-09T00:01:30.412Z,2.00
2022-11-09T00:04:03.105Z,1.80
2022-11-09T00:06:32.444Z,2.23
2022-11-09T00:09:07.103Z,2.10
2022-11-09T00:11:35.962Z,2.20
2022-11-09T00:14:03.631Z,1.83
2022-11-09T00:16:31.522Z,2.37
2022-11-09T00:18:59.662Z,1.90
2022-11-09T00:21:27.592Z,2.20
2022-11-09T00:23:55.702Z,1.90
2022-11-09T00:26:23.651Z,2.13
2022-11-09T00:28:51.954Z,2.20
2022-11-09T00:31:22.763Z,2.33
2022-11-09T00:33:52.036Z,2.13
2022-11-09T00:36:22.131Z,2.00
2022-11-09T00:38:57.509Z,2.30
2022-11-09T00:41:25.170Z,2.00
2022-11-09T00:43:53.294Z,2.10
2022-11-09T00:46:21.817Z,1.80
2022-11-09T00:48:49.671Z,2.17
2022-11-09T00:51:41.843Z,2.20
2022-11-09T00:54:10.206Z,2.00
2022-11-09T00:56:38.385Z,2.00
2022-11-09T00:59:05.904Z,1.77
2022-11-09T01:01:35.002Z,2.03
2022-11-09T01:04:02.458Z,2.40
2022-11-09T01:06:30.427Z,1.97
2022-11-09T01:08:59.275Z,1.70
2022-11-09T01:11:27.308Z,2.33
2022-11-09T01:13:55.460Z,2.17
2022-11-09T01:16:25.001Z,3.00
2022-11-09T01:18:57.669Z,2.00
2022-11-09T01:21:33.223Z,2.30
2022-11-09T01:24:02.060Z,1.80
2022-11-09T01:26:30.523Z,1.80
2022-11-09T01:28:58.430Z,2.03
2022-11-09T01:31:26.613Z,2.17
2022-11-09T01:33:55.637Z,2.27
2022-11-09T01:36:24.807Z,2.40
2022-11-09T01:38:55.604Z,2.33
2022-11-09T01:41:28.787Z,2.40
2022-11-09T01:44:07.403Z,1.90
2022-11-09T01:46:46.993Z,2.10
2022-11-09T01:49:33.714Z,2.00
2022-11-09T01:52:29.895Z,1.93
2022-11-09T01:55:18.968Z,2.20
2022-11-09T01:57:51.437Z,1.70
2022-11-09T02:00:20.748Z,2.40
2022-11-09T02:03:29.996Z,2.30
2022-11-09T02:06:00.889Z,2.80
2022-11-09T02:08:56.191Z,2.13
2022-11-09T02:11:27.746Z,2.10
2022-11-09T02:13:58.682Z,2.50
2022-11-09T02:16:28.154Z,2.57
2022-11-09T02:18:58.118Z,1.93
2022-11-09T02:21:35.295Z,2.40
2022-11-09T02:24:06.354Z,1.90
2022-11-09T02:26:53.539Z,2.00
2022-11-09T02:29:36.595Z,2.20
2022-11-09T02:32:20.545Z,1.93
2022-11-09T02:34:49.009Z,2.40
2022-11-09T02:37:59.376Z,2.10
2022-11-09T02:40:33.803Z,2.20
2022-11-09T02:43:04.763Z,2.23
2022-11-09T02:45:32.061Z,1.83
2022-11-09T02:48:00.325Z,2.30
2022-11-09T02:50:28.263Z,2.70
2022-11-09T02:52:56.383Z,2.50
2022-11-09T02:55:24.179Z,2.17
2022-11-09T02:57:52.008Z,2.13
2022-11-09T03:00:21.444Z,2.20
2022-11-09T03:02:50.614Z,2.23
2022-11-09T03:05:19.831Z,2.20
2022-11-09T03:07:50.391Z,2.17
2022-11-09T03:10:24.102Z,2.30
2022-11-09T03:12:52.715Z,2.27
2022-11-09T03:15:21.609Z,2.30
2022-11-09T03:17:51.801Z,2.30
2022-11-09T03:20:22.882Z,2.20
2022-11-09T03:22:52.064Z,2.60
2022-11-09T03:25:20.036Z,2.40
2022-11-09T03:27:47.906Z,3.00
2022-11-09T03:30:16.393Z,2.33
2022-11-09T03:32:49.435Z,2.10
2022-11-09T03:35:18.454Z,2.53
2022-11-09T03:37:46.466Z,2.57
2022-11-09T03:40:14.630Z,2.40
2022-11-09T03:42:47.149Z,2.47
2022-11-09T03:45:15.728Z,2.67
2022-11-09T03:47:48.347Z,2.50
2022-11-09T03:50:18.296Z,2.53
2022-11-09T03:52:47.354Z,2.30
2022-11-09T03:55:15.464Z,2.40
2022-11-09T03:57:44.831Z,2.47
2022-11-09T04:00:14.639Z,2.43
2022-11-09T04:02:42.111Z,2.30
2022-11-09T04:05:10.100Z,2.60
2022-11-09T04:07:39.186Z,2.60
2022-11-09T04:10:08.218Z,2.47
2022-11-09T04:12:36.021Z,2.17
2022-11-09T04:15:03.798Z,2.30
2022-11-09T04:17:32.450Z,2.10
2022-11-09T04:20:00.915Z,2.87
2022-11-09T04:22:28.194Z,2.57
2022-11-09T04:24:56.562Z,2.47
2022-11-09T04:27:24.313Z,2.30
2022-11-09T04:29:52.199Z,2.70
2022-11-09T04:32:19.969Z,2.23
2022-11-09T04:34:47.818Z,2.50
2022-11-09T04:37:20.052Z,2.60
2022-11-09T04:39:49.221Z,2.70
2022-11-09T04:42:17.560Z,2.20
2022-11-09T04:44:45.387Z,2.37
2022-11-09T04:47:16.348Z,2.17
2022-11-09T04:49:43.560Z,2.30
2022-11-09T04:52:11.805Z,3.97
2022-11-09T04:54:39.871Z,2.40
2022-11-09T04:57:07.844Z,2.10
2022-11-09T04:59:37.114Z,2.53
2022-11-09T05:02:05.285Z,2.47
2022-11-09T05:04:32.971Z,2.57
2022-11-09T05:07:00.873Z,2.03
2022-11-09T05:09:28.928Z,2.30
2022-11-09T05:11:57.506Z,2.60
2022-11-09T05:14:26.469Z,2.23
2022-11-09T05:16:53.866Z,2.60
2022-11-09T05:19:21.382Z,2.40
2022-11-09T05:21:49.372Z,2.40
2022-11-09T05:24:18.111Z,2.07
2022-11-09T05:26:46.816Z,2.77
2022-11-09T05:29:15.241Z,2.30
2022-11-09T05:31:45.471Z,2.30
2022-11-09T05:34:17.700Z,2.47
2022-11-09T05:36:47.373Z,2.50
2022-11-09T05:39:16.759Z,2.57
2022-11-09T05:41:44.608Z,2.40
2022-11-09T05:44:12.388Z,2.20
2022-11-09T05:46:40.386Z,2.20
2022-11-09T05:49:07.878Z,2.13
2022-11-09T05:51:39.656Z,2.27
2022-11-09T05:54:06.864Z,2.47
2022-11-09T05:56:34.716Z,2.17
2022-11-09T05:59:03.022Z,2.40
2022-11-09T06:01:31.109Z,2.30
2022-11-09T06:03:59.933Z,2.13
2022-11-09T06:06:53.137Z,2.60
2022-11-09T06:09:21.310Z,2.07
2022-11-09T06:11:51.208Z,2.30
2022-11-09T06:14:19.400Z,2.27
2022-11-09T06:16:47.278Z,2.67
2022-11-09T06:19:15.139Z,2.20
2022-11-09T06:21:43.554Z,2.30
2022-11-09T06:24:13.273Z,2.33
2022-11-09T06:26:56.317Z,2.13
2022-11-09T06:29:24.664Z,2.30
2022-11-09T06:31:51.785Z,2.60
2022-11-09T06:34:24.549Z,2.33
2022-11-09T06:36:54.658Z,2.53
2022-11-09T06:39:28.617Z,2.20
2022-11-09T06:41:57.421Z,2.60
2022-11-09T06:44:25.898Z,2.30
2022-11-09T06:46:54.798Z,2.30
2022-11-09T06:49:23.744Z,2.27
2022-11-09T06:51:55.179Z,2.47
2022-11-09T06:54:26.041Z,2.30
2022-11-09T06:56:57.385Z,2.77
2022-11-09T06:59:26.306Z,2.60
2022-11-09T07:02:00.160Z,2.20
2022-11-09T07:04:29.050Z,2.40
2022-11-09T07:06:58.439Z,1.73
2022-11-09T07:09:28.748Z,2.47
2022-11-09T07:12:01.298Z,2.70
2022-11-09T07:14:56.519Z,2.40
2022-11-09T07:17:26.220Z,2.10
2022-11-09T07:19:54.456Z,2.30
2022-11-09T07:22:29.645Z,2.20
2022-11-09T07:27:35.930Z,1.97
2022-11-09T07:30:12.224Z,2.07
2022-11-09T07:35:31.436Z,2.13
2022-11-09T07:43:52.422Z,2.53
2022-11-09T07:46:47.358Z,2.30
2022-11-09T07:49:18.949Z,2.20
2022-11-09T07:51:48.594Z,2.17
2022-11-09T07:54:18.663Z,2.67
2022-11-09T08:00:02.254Z,2.57
2022-11-09T08:02:43.305Z,2.33
2022-11-09T08:07:49.788Z,2.20
2022-11-09T08:16:10.896Z,2.13
2022-11-09T08:18:47.703Z,2.07
2022-11-09T08:30:01.086Z,2.20
2022-11-09T08:32:39.166Z,2.30
2022-11-09T08:35:10.907Z,2.47
2022-11-09T08:37:55.976Z,2.30
2022-11-09T08:40:28.609Z,2.30
2022-11-09T08:43:08.197Z,2.33
2022-11-09T08:45:42.056Z,2.10
2022-11-09T08:56:46.894Z,2.43
2022-11-09T08:59:19.067Z,2.03
2022-11-09T09:05:10.184Z,2.20
2022-11-09T09:07:40.092Z,2.10
2022-11-09T09:10:14.740Z,2.17
2022-11-09T09:12:43.432Z,2.23
2022-11-09T09:18:14.482Z,2.40
2022-11-09T09:20:44.951Z,2.40
2022-11-09T09:23:15.226Z,2.60
2022-11-09T09:25:44.454Z,2.53
2022-11-09T09:28:19.454Z,2.40
2022-11-09T09:30:49.153Z,2.63
2022-11-09T09:33:17.301Z,2.37
2022-11-09T09:35:46.993Z,2.70
2022-11-09T09:38:15.508Z,2.20
2022-11-09T09:41:05.708Z,2.20
2022-11-09T09:43:48.030Z,2.33
2022-11-09T09:46:23.954Z,2.20
2022-11-09T09:49:07.941Z,2.40
2022-11-09T09:52:26.624Z,2.30
2022-11-09T09:55:25.384Z,2.50
2022-11-09T09:58:01.033Z,2.50
2022-11-09T10:00:42.894Z,2.10
2022-11-09T10:03:18.733Z,1.90
2022-11-09T10:05:52.524Z,3.20
2022-11-09T10:08:39.048Z,2.93
2022-11-09T10:12:01.084Z,2.50
2022-11-09T10:15:03.585Z,2.50
2022-11-09T10:20:55.030Z,2.20
2022-11-09T10:23:33.339Z,2.47
2022-11-09T10:29:30.005Z,2.20
2022-11-09T10:32:21.358Z,2.80
2022-11-09T10:34:56.192Z,2.20
2022-11-09T10:37:36.562Z,2.60
2022-11-09T10:40:52.912Z,2.83
2022-11-09T10:43:45.373Z,2.40
2022-11-09T10:46:18.996Z,2.73
2022-11-09T10:48:49.438Z,2.57
2022-11-09T10:51:40.271Z,2.53
2022-11-09T10:54:28.925Z,2.30
2022-11-09T10:57:11.793Z,2.10
2022-11-09T10:59:52.772Z,2.40
2022-11-09T11:02:51.286Z,2.17
2022-11-09T11:05:57.016Z,2.40
2022-11-09T11:08:29.774Z,3.07
2022-11-09T11:11:37.394Z,2.73
2022-11-09T11:14:35.368Z,2.47
2022-11-09T11:17:03.608Z,2.40
2022-11-09T11:19:36.934Z,2.77
2022-11-09T11:22:20.106Z,2.43
2022-11-09T11:25:00.921Z,2.80
2022-11-09T11:28:24.484Z,2.17
2022-11-09T11:30:53.974Z,1.93
2022-11-09T11:33:28.189Z,1.87
2022-11-09T11:36:08.786Z,2.10
2022-11-09T11:38:54.903Z,2.30
2022-11-09T11:41:40.216Z,2.00
2022-11-09T11:44:32.394Z,2.10
2022-11-09T11:47:15.998Z,2.40
2022-11-09T11:49:57.918Z,1.83
2022-11-09T11:53:33.869Z,2.30
2022-11-09T11:56:49.393Z,2.00
2022-11-09T11:59:39.701Z,1.77
2022-11-09T12:02:39.670Z,2.00
2022-11-09T12:05:42.229Z,1.70
2022-11-09T12:08:24.924Z,1.90
2022-11-09T12:11:30.093Z,1.90
2022-11-09T12:14:16.328Z,1.60
2022-11-09T12:17:14.348Z,1.60
2022-11-09T12:20:20.377Z,1.53
2022-11-09T12:23:34.550Z,1.70
2022-11-09T12:26:13.396Z,2.00
2022-11-09T12:28:52.492Z,1.67
2022-11-09T12:31:48.243Z,1.67
2022-11-09T12:34:18.965Z,1.87
2022-11-09T12:37:25.559Z,2.10
2022-11-09T12:39:54.871Z,1.50
2022-11-09T12:42:38.076Z,1.87
2022-11-09T12:45:33.262Z,2.40
2022-11-09T12:48:27.224Z,1.87
2022-11-09T12:50:55.751Z,2.00
2022-11-09T12:53:29.945Z,2.20
2022-11-09T12:56:06.520Z,1.93
2022-11-09T12:58:37.254Z,1.73
2022-11-09T13:01:09.669Z,1.80
2022-11-09T13:03:54.631Z,1.57
2022-11-09T13:06:26.086Z,1.70
2022-11-09T13:09:04.720Z,1.63
2022-11-09T13:11:36.406Z,2.17
2022-11-09T13:14:22.419Z,1.63
2022-11-09T13:16:57.344Z,1.93
2022-11-09T13:19:35.274Z,1.93
2022-11-09T13:22:04.987Z,1.83
2022-11-09T13:24:36.695Z,2.03
2022-11-09T13:27:05.404Z,2.20
2022-11-09T13:29:42.059Z,1.97
2022-11-09T13:32:09.812Z,2.27
2022-11-09T13:34:58.010Z,2.17
2022-11-09T13:38:09.962Z,1.87
2022-11-09T13:40:45.658Z,1.80
2022-11-09T13:43:13.018Z,2.10
2022-11-09T13:45:51.297Z,1.83
2022-11-09T13:48:41.755Z,2.27
2022-11-09T13:51:19.120Z,1.83
2022-11-09T13:54:18.771Z,1.80
2022-11-09T13:56:48.863Z,1.83
2022-11-09T13:59:25.703Z,2.00
2022-11-09T14:01:56.090Z,2.30
2022-11-09T14:04:29.941Z,2.40
2022-11-09T14:07:07.160Z,1.90
2022-11-09T14:10:04.461Z,2.60
2022-11-09T14:13:15.310Z,2.03
2022-11-09T14:15:59.004Z,1.70
2022-11-09T14:18:58.601Z,2.60
2022-11-09T14:21:38.823Z,2.40
2022-11-09T14:24:24.908Z,2.27
2022-11-09T14:27:10.995Z,2.40
2022-11-09T14:29:49.067Z,2.17
2022-11-09T14:32:19.267Z,2.00
2022-11-09T14:34:47.394Z,2.33
2022-11-09T14:37:15.859Z,2.93
2022-11-09T14:39:49.672Z,1.90
2022-11-09T14:42:26.805Z,2.10
2022-11-09T14:44:55.641Z,2.17
2022-11-09T14:47:31.562Z,1.87
2022-11-09T14:50:00.163Z,2.67
2022-11-09T14:52:30.176Z,1.83
2022-11-09T14:54:58.798Z,2.00
2022-11-09T14:57:27.011Z,2.57
2022-11-09T14:59:55.914Z,2.27
2022-11-09T15:02:49.263Z,2.53
2022-11-09T15:05:41.466Z,2.40
2022-11-09T15:08:21.802Z,2.10
2022-11-09T15:10:51.941Z,2.10
2022-11-09T15:13:28.034Z,2.50
2022-11-09T15:15:57.082Z,2.50
2022-11-09T15:18:33.441Z,2.43
2022-11-09T15:21:12.553Z,2.20
2022-11-09T15:23:42.656Z,2.63
2022-11-09T15:26:31.929Z,1.90
2022-11-09T15:28:58.765Z,2.63
2022-11-09T15:31:28.168Z,2.30
2022-11-09T15:34:00.626Z,2.50
2022-11-09T15:36:39.757Z,2.87
2022-11-09T15:39:20.928Z,2.10
2022-11-09T15:41:48.193Z,2.23
2022-11-09T15:44:15.164Z,2.43
2022-11-09T15:46:46.241Z,2.17
2022-11-09T15:49:19.545Z,2.97
2022-11-09T15:51:47.229Z,7.17
2022-11-09T15:54:15.711Z,3.17
2022-11-09T15:56:42.870Z,2.77
2022-11-09T15:59:26.946Z,2.67
2022-11-09T16:04:44.938Z,6.20
2022-11-09T16:07:18.488Z,4.10
2022-11-09T16:09:45.498Z,4.33
2022-11-09T16:12:12.409Z,3.93
2022-11-09T16:14:39.840Z,3.70
2022-11-09T16:17:10.503Z,3.17
2022-11-09T16:19:40.438Z,3.00
2022-11-09T16:22:08.710Z,3.37
2022-11-09T16:24:41.489Z,3.47
2022-11-09T16:27:16.979Z,3.10
2022-11-09T16:29:56.579Z,2.97
2022-11-09T16:32:24.260Z,3.67
2022-11-09T16:35:08.742Z,2.77
2022-11-09T16:37:42.044Z,2.63
2022-11-09T16:40:13.860Z,2.80
2022-11-09T16:42:41.605Z,4.13
2022-11-09T16:45:11.902Z,4.83
2022-11-09T16:47:47.426Z,3.80
2022-11-09T16:50:15.645Z,3.70
2022-11-09T16:52:43.377Z,2.77
2022-11-09T16:55:11.790Z,3.10
2022-11-09T16:57:39.870Z,2.37
2022-11-09T17:00:08.601Z,2.33
2022-11-09T17:05:33.288Z,2.57
2022-11-09T17:08:00.782Z,2.53
2022-11-09T17:10:30.593Z,2.80
2022-11-09T17:12:58.307Z,2.17
2022-11-09T17:15:25.749Z,2.40
2022-11-09T17:17:53.018Z,1.90
2022-11-09T17:20:19.899Z,2.03
2022-11-09T17:22:51.450Z,2.33
2022-11-09T17:25:18.437Z,2.80
2022-11-09T17:27:45.763Z,1.50
2022-11-09T17:30:12.673Z,1.33
2022-11-09T17:32:40.792Z,1.30
2022-11-09T17:35:08.265Z,1.10
2022-11-09T17:37:35.308Z,1.27
2022-11-09T17:40:02.079Z,1.20
2022-11-09T17:42:54.514Z,1.20
2022-11-09T17:45:21.644Z,1.20
2022-11-09T17:47:50.260Z,1.50
2022-11-09T17:50:19.203Z,1.87
2022-11-09T17:52:47.443Z,1.40
2022-11-09T17:55:15.806Z,1.27
2022-11-09T17:57:43.737Z,2.07
2022-11-09T18:00:36.494Z,1.83
2022-11-09T18:03:03.880Z,1.40
2022-11-09T18:05:31.115Z,1.50
2022-11-09T18:07:58.134Z,1.40
2022-11-09T18:10:25.485Z,1.57
2022-11-09T18:12:52.495Z,1.77
2022-11-09T18:15:19.278Z,1.80
2022-11-09T18:17:46.033Z,1.63
2022-11-09T18:20:12.843Z,2.20
2022-11-09T18:22:39.966Z,2.07
2022-11-09T18:25:07.092Z,2.00
2022-11-09T18:27:33.914Z,2.00
2022-11-09T18:30:02.424Z,2.10
2022-11-09T18:32:30.203Z,1.87
2022-11-09T18:34:57.122Z,2.00
2022-11-09T18:37:24.968Z,2.10
2022-11-09T18:39:52.016Z,1.97
2022-11-09T18:42:43.563Z,2.13
2022-11-09T18:45:10.828Z,2.30
2022-11-09T18:47:37.675Z,2.20
2022-11-09T18:50:06.533Z,2.00
2022-11-09T18:52:37.193Z,2.17
2022-11-09T18:55:08.126Z,2.17
2022-11-09T18:57:59.468Z,2.50
2022-11-09T19:00:26.155Z,2.00
2022-11-09T19:02:54.257Z,2.50
2022-11-09T19:05:21.261Z,2.00
2022-11-09T19:07:48.012Z,3.07
2022-11-09T19:10:15.021Z,2.53
2022-11-09T19:12:41.738Z,2.23
2022-11-09T19:15:08.923Z,2.07
2022-11-09T19:17:37.336Z,2.00
2022-11-09T19:20:04.519Z,2.73
2022-11-09T19:22:33.760Z,2.33
2022-11-09T19:25:04.581Z,2.97
2022-11-09T19:27:31.404Z,2.10
2022-11-09T19:29:58.289Z,2.07
2022-11-09T19:32:25.147Z,2.77
2022-11-09T19:34:52.071Z,2.13
2022-11-09T19:37:18.948Z,2.67
2022-11-09T19:39:47.624Z,2.40
2022-11-09T19:42:14.586Z,2.97
2022-11-09T19:44:41.398Z,2.47
2022-11-09T19:47:11.366Z,2.53
2022-11-09T19:49:38.201Z,2.20
2022-11-09T19:52:05.417Z,2.77
2022-11-09T19:54:32.279Z,2.20
2022-11-09T19:56:59.168Z,2.00
2022-11-09T19:59:26.121Z,2.00
2022-11-09T20:01:52.854Z,2.30
2022-11-09T20:04:24.182Z,2.07
2022-11-09T20:06:50.925Z,2.40
2022-11-09T20:09:17.749Z,2.93
2022-11-09T20:12:03.086Z,3.23
2022-11-09T20:14:29.833Z,2.23
2022-11-09T20:17:03.369Z,2.30
2022-11-09T20:19:31.402Z,2.40
2022-11-09T20:21:58.261Z,2.10
2022-11-09T20:24:24.994Z,2.57
2022-11-09T20:26:52.194Z,2.67
2022-11-09T20:29:19.136Z,2.40
2022-11-09T20:31:45.890Z,2.23
2022-11-09T20:34:12.783Z,2.60
2022-11-09T20:36:39.655Z,2.70
2022-11-09T20:39:06.850Z,2.43
2022-11-09T20:41:33.592Z,2.97
2022-11-09T20:44:01.162Z,2.37
2022-11-09T20:46:31.317Z,2.53
2022-11-09T20:49:02.937Z,2.90
2022-11-09T20:51:32.138Z,2.30
2022-11-09T20:54:02.479Z,2.60
2022-11-09T20:56:36.653Z,2.73
2022-11-09T20:59:03.624Z,2.83
2022-11-09T21:01:30.570Z,2.30
2022-11-09T21:04:02.870Z,2.70
2022-11-09T21:06:54.221Z,2.70
2022-11-09T21:09:45.857Z,2.90
2022-11-09T21:12:21.724Z,4.13
2022-11-09T21:14:48.653Z,2.50
2022-11-09T21:17:16.199Z,2.83
2022-11-09T21:19:43.527Z,2.77
2022-11-09T21:22:11.509Z,2.87
2022-11-09T21:24:59.033Z,2.63
2022-11-09T21:27:48.023Z,2.77
2022-11-09T21:30:40.667Z,2.67
2022-11-09T21:33:07.489Z,2.40
2022-11-09T21:35:34.331Z,2.33
2022-11-09T21:38:01.165Z,2.80
2022-11-09T21:40:27.853Z,3.00
2022-11-09T21:42:57.726Z,2.20
2022-11-09T21:45:24.423Z,1.80
2022-11-09T21:47:53.927Z,1.90
2022-11-09T21:50:23.999Z,1.70
2022-11-09T21:52:51.947Z,1.93
2022-11-09T21:55:19.067Z,1.77
2022-11-09T21:57:48.574Z,1.90
2022-11-09T22:00:16.342Z,2.00
2022-11-09T22:02:46.829Z,1.60
2022-11-09T22:05:14.937Z,1.70
2022-11-09T22:07:43.378Z,1.93
2022-11-09T22:10:11.395Z,2.10
2022-11-09T22:13:03.268Z,1.87
2022-11-09T22:15:48.844Z,1.93
2022-11-09T22:18:35.611Z,1.43
2022-11-09T22:21:02.760Z,2.17
2022-11-09T22:23:54.975Z,2.03
2022-11-09T22:26:46.866Z,2.03
2022-11-09T22:29:13.717Z,1.27
2022-11-09T22:31:40.686Z,1.23
2022-11-09T22:34:07.526Z,1.40
2022-11-09T22:36:34.569Z,1.40
2022-11-09T22:39:01.350Z,1.30
2022-11-09T22:41:28.134Z,1.33
2022-11-09T22:43:56.593Z,1.30
2022-11-09T22:46:23.468Z,1.60
2022-11-09T22:48:50.789Z,1.20
2022-11-09T22:51:18.398Z,1.00
2022-11-09T22:53:49.719Z,1.17
2022-11-09T22:56:41.746Z,0.90
2022-11-09T22:59:08.557Z,1.00
2022-11-09T23:01:35.421Z,1.20
2022-11-09T23:04:02.207Z,0.90
2022-11-09T23:06:29.387Z,1.70
2022-11-09T23:08:56.173Z,1.03
2022-11-09T23:11:24.965Z,1.40
2022-11-09T23:13:56.877Z,1.00
2022-11-09T23:16:24.090Z,1.20
2022-11-09T23:18:57.664Z,1.10
2022-11-09T23:21:24.363Z,1.07
2022-11-09T23:30:19.400Z,1.20
2022-11-09T23:32:46.235Z,1.37
2022-11-09T23:35:13.290Z,1.30
2022-11-09T23:37:40.447Z,1.33
2022-11-09T23:40:08.574Z,1.47
2022-11-09T23:42:35.440Z,2.00
2022-11-09T23:45:27.045Z,1.23
2022-11-09T23:47:54.200Z,2.00
2022-11-09T23:50:21.602Z,1.60
2022-11-09T23:52:48.436Z,1.30
2022-11-09T23:55:15.246Z,1.27
2022-11-09T23:57:43.399Z,1.13
